Titonka, IA (50480)

1:31 AM CDT on August 28, 2015 (GMT -0500)
KIATHOMP4 | | Change Station
CLOSE
Current Station
Personal Weather Station
Location: Thompson, IA
Elevation: 1210 ft
Nearby Weather Stations

Elev 1210 ft 43.35 °N, 93.81 °W | Updated 23 seconds ago

Rain
Rain
63.5 °F
Feels Like 63.5 °F
N
5.4
Wind Variable Wind from South
Gusts 6.0 mph

Today
High -- | Low -- °F
--% Chance of Precip.
Yesterday
High -- | Low -- °F
Precip. -- in
6:35 AM 7:58 PM
Waxing Gibbous, 97% visible
Pressure 30.03 in
Visibility 8.0 miles
Clouds Scattered Clouds 500 ft
Scattered Clouds 4100 ft
Overcast 10000 ft
Dew Point 63 °F
Humidity 99%
Rainfall 0.33 in
Snow Depth Not available.
UV 0 out of 12
Pollen 10.50 out of 12
Air Quality Not available.
Flu Activity Not available.
METAR KAXA 280615Z AUTO 14008KT 8SM SCT005 SCT041 OVC100 17/17 A3003 RMK AO2
Pressure 30.03 in
Visibility 8.0 miles
Clouds Scattered Clouds 500 ft
Scattered Clouds 4100 ft
Overcast 10000 ft
Dew Point 63 °F
Humidity 99%
Rainfall 0.33 in
Snow Depth Not available.
UV 0 out of 12
Pollen 10.50 out of 12
Air Quality Not available.
Flu Activity Not available.
METAR KAXA 280615Z AUTO 14008KT 8SM SCT005 SCT041 OVC100 17/17 A3003 RMK AO2

10-Day Weather Forecast

×

Almanac

Astronomy

Aug. 28, 2015 Rise Set
Actual Time
Civil Twilight
Nautical Twilight
Astronomical Twilight
Moon
Length of Visible Light
Length of Day
Tomorrow will be .
, % of the Moon is Illuminated

Today's Extremes

State Highs State Lows

Community

WunderPhotos

Upload Photos

1,850,341 photos uploaded!

WunderBlogs® & News

Nearby

Air Quality

  Air Quality AQ Index Pollutant
Not available.

Snow Depth

Station Depth Elevation

Earthquake Activity

City Distance Mag. Time & Date
Minimum magnitude displayed is 2.5.

Coastal Water Temperatures

Place Temperature

Stations

Nearby Weather Stations

Station Location Temp. Windchill Dew Point Humidity Wind Precip. Elev Updated Type